createdAt,value
2018-02-13T00:00:29.388Z,6.18
2018-02-13T00:03:03.212Z,8.68
2018-02-13T00:05:37.782Z,13.32
2018-02-13T00:08:11.577Z,4.78
2018-02-13T00:10:45.237Z,7.85
2018-02-13T00:13:20.413Z,5.35
2018-02-13T00:15:55.907Z,4.60
2018-02-13T00:18:29.521Z,3.70
2018-02-13T00:21:04.104Z,4.55
2018-02-13T00:23:37.992Z,3.78
2018-02-13T00:26:11.788Z,5.15
2018-02-13T00:28:46.317Z,5.72
2018-02-13T00:31:20.650Z,4.43
2018-02-13T00:33:54.293Z,3.87
2018-02-13T00:36:28.054Z,4.62
2018-02-13T00:39:01.870Z,4.35
2018-02-13T00:41:36.122Z,3.97
2018-02-13T00:44:10.506Z,4.22
2018-02-13T00:46:44.284Z,4.10
2018-02-13T00:49:18.049Z,4.45
2018-02-13T00:51:51.745Z,3.85
2018-02-13T00:54:25.345Z,4.62
2018-02-13T00:56:59.115Z,4.40
2018-02-13T00:59:33.567Z,5.68
2018-02-13T01:02:07.384Z,4.45
2018-02-13T01:04:41.970Z,4.65
2018-02-13T01:07:15.757Z,4.68
2018-02-13T01:09:49.542Z,5.65
2018-02-13T01:12:23.370Z,4.60
2018-02-13T01:14:57.026Z,8.85
2018-02-13T01:17:31.491Z,11.35
2018-02-13T01:20:05.278Z,9.43
2018-02-13T01:22:38.929Z,13.57
2018-02-13T01:25:12.819Z,9.75
2018-02-13T01:27:46.621Z,9.02
2018-02-13T01:30:22.147Z,4.50
2018-02-13T01:32:55.962Z,5.95
2018-02-13T01:35:29.940Z,3.90
2018-02-13T01:38:04.647Z,4.87
2018-02-13T01:40:38.404Z,4.03
2018-02-13T01:43:12.190Z,5.00
2018-02-13T01:45:45.935Z,3.53
2018-02-13T01:48:21.124Z,3.95
2018-02-13T01:50:54.860Z,4.65
2018-02-13T01:53:29.446Z,4.53
2018-02-13T01:56:04.005Z,3.87
2018-02-13T01:58:39.371Z,4.37
2018-02-13T02:01:13.051Z,4.30
2018-02-13T02:03:48.288Z,3.75
2018-02-13T02:06:21.919Z,4.15
2018-02-13T02:08:55.699Z,4.15
2018-02-13T02:11:29.338Z,3.90
2018-02-13T02:14:03.987Z,3.60
2018-02-13T02:16:37.673Z,5.55
2018-02-13T02:19:11.421Z,4.68
2018-02-13T02:21:45.226Z,5.45
2018-02-13T02:24:19.780Z,4.50
2018-02-13T02:26:53.492Z,4.37
2018-02-13T02:29:28.136Z,5.20
2018-02-13T02:32:03.247Z,6.40
2018-02-13T02:34:36.788Z,4.40
2018-02-13T02:37:12.198Z,4.25
2018-02-13T02:39:45.854Z,4.68
2018-02-13T02:42:20.368Z,5.30
2018-02-13T02:44:54.952Z,4.70
2018-02-13T02:47:29.250Z,4.60
2018-02-13T02:50:03.763Z,4.20
2018-02-13T02:52:37.548Z,5.20
2018-02-13T02:55:11.224Z,7.65
2018-02-13T02:57:45.096Z,10.40
2018-02-13T03:00:19.664Z,16.75
2018-02-13T03:02:54.063Z,8.40
2018-02-13T03:05:28.437Z,8.48
2018-02-13T03:08:02.190Z,6.30
2018-02-13T03:10:35.943Z,4.60
2018-02-13T03:13:09.655Z,4.75
2018-02-13T03:15:44.193Z,3.53
2018-02-13T03:18:18.118Z,4.95
2018-02-13T03:20:52.644Z,4.15
2018-02-13T03:23:26.549Z,5.65
2018-02-13T03:26:01.226Z,3.70
2018-02-13T03:28:35.817Z,4.60
2018-02-13T03:31:09.545Z,3.85
2018-02-13T03:33:43.203Z,5.55
2018-02-13T03:36:16.997Z,5.07
2018-02-13T03:38:51.656Z,4.15
2018-02-13T03:41:25.509Z,4.55
2018-02-13T03:43:59.251Z,3.62
2018-02-13T03:46:33.150Z,5.78
2018-02-13T03:49:06.937Z,4.37
2018-02-13T03:51:40.634Z,5.00
2018-02-13T03:54:16.595Z,3.80
2018-02-13T03:56:51.388Z,4.30
2018-02-13T03:59:25.189Z,3.50
2018-02-13T04:01:58.948Z,5.05
2018-02-13T04:04:33.582Z,4.25
2018-02-13T04:07:07.231Z,7.97
2018-02-13T04:09:41.757Z,5.57
2018-02-13T04:12:15.577Z,9.90
2018-02-13T04:14:49.218Z,10.13
2018-02-13T04:17:23.656Z,9.70
2018-02-13T04:19:57.363Z,8.15
2018-02-13T04:22:31.137Z,7.03
2018-02-13T04:25:05.639Z,5.30
2018-02-13T04:27:40.062Z,5.93
2018-02-13T04:30:14.804Z,5.93
2018-02-13T04:32:48.702Z,5.75
2018-02-13T04:35:23.334Z,5.55
2018-02-13T04:37:57.004Z,5.68
2018-02-13T04:40:32.415Z,4.10
2018-02-13T04:43:06.880Z,4.30
2018-02-13T04:45:40.639Z,4.65
2018-02-13T04:48:14.222Z,5.60
2018-02-13T04:50:48.104Z,5.07
2018-02-13T04:53:21.730Z,3.78
2018-02-13T04:55:56.166Z,3.30
2018-02-13T04:58:31.039Z,3.97
2018-02-13T05:01:04.877Z,5.18
2018-02-13T05:03:38.683Z,6.40
2018-02-13T05:06:12.359Z,7.00
2018-02-13T05:08:46.086Z,7.07
2018-02-13T05:11:20.722Z,6.40
2018-02-13T05:13:54.577Z,5.45
2018-02-13T05:16:28.905Z,5.32
2018-02-13T05:19:03.302Z,10.10
2018-02-13T05:21:37.673Z,11.05
2018-02-13T05:24:11.520Z,11.98
2018-02-13T05:26:45.128Z,8.30
2018-02-13T05:29:19.706Z,7.32
2018-02-13T05:31:53.570Z,5.25
2018-02-13T05:34:29.022Z,4.80
2018-02-13T05:37:04.564Z,18.00
2018-02-13T05:39:38.178Z,7.25
2018-02-13T05:42:11.935Z,7.10
2018-02-13T05:44:46.552Z,5.35
2018-02-13T05:47:20.433Z,5.80
2018-02-13T05:49:55.375Z,5.78
2018-02-13T05:52:29.159Z,4.87
2018-02-13T05:55:04.110Z,5.70
2018-02-13T05:57:37.637Z,4.45
2018-02-13T06:00:12.037Z,5.75
2018-02-13T06:02:46.453Z,4.75
2018-02-13T06:05:20.341Z,4.57
2018-02-13T06:07:54.882Z,6.53
2018-02-13T06:10:29.431Z,8.00
2018-02-13T06:13:03.175Z,7.72
2018-02-13T06:15:37.068Z,5.35
2018-02-13T06:18:10.899Z,6.20
2018-02-13T06:20:45.511Z,8.52
2018-02-13T06:23:19.382Z,7.40
2018-02-13T06:25:53.857Z,6.75
2018-02-13T06:28:27.604Z,7.62
2018-02-13T06:31:02.750Z,11.60
2018-02-13T06:33:36.969Z,17.08
2018-02-13T06:36:10.613Z,12.68
2018-02-13T06:38:44.500Z,6.90
2018-02-13T06:41:18.327Z,5.60
2018-02-13T06:43:51.926Z,5.18
2018-02-13T06:46:26.773Z,4.28
2018-02-13T06:49:01.252Z,4.65
2018-02-13T06:51:35.078Z,4.82
2018-02-13T06:54:08.878Z,5.32
2018-02-13T06:56:43.514Z,4.65
2018-02-13T06:59:17.317Z,4.82
2018-02-13T07:01:51.205Z,4.68
2018-02-13T07:04:26.216Z,4.60
2018-02-13T07:06:59.975Z,5.22
2018-02-13T07:09:34.575Z,7.22
2018-02-13T07:12:09.047Z,6.47
2018-02-13T07:14:42.893Z,6.47
2018-02-13T07:17:17.509Z,6.45
2018-02-13T07:19:51.178Z,7.15
2018-02-13T07:22:25.813Z,6.65
2018-02-13T07:24:59.725Z,9.13
2018-02-13T07:27:33.811Z,11.18
2018-02-13T07:30:07.653Z,14.30
2018-02-13T07:32:42.035Z,8.13
2018-02-13T07:35:16.839Z,9.00
2018-02-13T07:37:50.477Z,9.35
2018-02-13T07:40:24.272Z,10.45
2018-02-13T07:42:57.891Z,12.98
2018-02-13T07:45:31.789Z,18.08
2018-02-13T07:48:05.511Z,23.35
2018-02-13T07:50:39.182Z,14.38
2018-02-13T07:53:13.008Z,9.93
2018-02-13T07:55:46.837Z,5.82
2018-02-13T07:58:20.681Z,5.53
2018-02-13T08:00:54.395Z,6.07
2018-02-13T08:03:28.031Z,7.50
2018-02-13T08:06:01.844Z,6.00
2018-02-13T08:08:35.627Z,5.20
2018-02-13T08:11:09.311Z,8.40
2018-02-13T08:13:43.185Z,4.55
2018-02-13T08:16:16.966Z,5.50
2018-02-13T08:18:51.114Z,4.75
2018-02-13T08:21:25.610Z,4.10
2018-02-13T08:23:59.458Z,4.97
2018-02-13T08:26:33.355Z,6.95
2018-02-13T08:29:07.275Z,7.20
2018-02-13T08:31:41.013Z,8.07
2018-02-13T08:34:14.744Z,6.90
2018-02-13T08:36:49.233Z,7.70
2018-02-13T08:39:22.872Z,5.15
2018-02-13T08:41:57.468Z,5.45
2018-02-13T08:44:31.266Z,6.05
2018-02-13T08:47:04.996Z,5.30
2018-02-13T08:49:38.765Z,7.25
2018-02-13T08:52:13.382Z,7.30
2018-02-13T08:54:47.805Z,11.18
2018-02-13T08:57:21.661Z,11.60
2018-02-13T08:59:55.456Z,8.02
2018-02-13T09:02:29.305Z,8.05
2018-02-13T09:05:02.973Z,7.35
2018-02-13T09:07:36.780Z,5.50
2018-02-13T09:10:11.383Z,9.07
2018-02-13T09:12:45.170Z,3.92
2018-02-13T09:15:18.874Z,4.03
2018-02-13T09:17:52.764Z,3.15
2018-02-13T09:20:27.398Z,3.70
2018-02-13T09:23:01.275Z,2.60
2018-02-13T09:25:35.945Z,2.85
2018-02-13T09:28:09.802Z,3.10
2018-02-13T09:30:43.395Z,2.50
2018-02-13T09:33:17.199Z,3.42
2018-02-13T09:35:50.901Z,4.30
2018-02-13T09:38:24.681Z,3.33
2018-02-13T09:40:58.489Z,3.08
2018-02-13T09:43:32.307Z,5.05
2018-02-13T09:46:06.151Z,3.65
2018-02-13T09:48:39.881Z,4.20
2018-02-13T09:51:14.520Z,3.70
2018-02-13T09:53:48.349Z,3.42
2018-02-13T09:56:24.467Z,4.55
2018-02-13T09:59:00.181Z,3.30
2018-02-13T10:01:34.861Z,2.72
2018-02-13T10:04:09.284Z,3.67
2018-02-13T10:06:43.723Z,7.57
2018-02-13T10:09:17.355Z,4.85
2018-02-13T10:11:52.530Z,4.45
2018-02-13T10:14:27.005Z,5.72
2018-02-13T10:17:00.789Z,2.97
2018-02-13T10:19:34.404Z,4.37
2018-02-13T10:22:08.942Z,11.32
2018-02-13T10:24:43.569Z,7.22
2018-02-13T10:27:17.273Z,10.07
2018-02-13T10:29:51.020Z,11.07
2018-02-13T10:32:24.916Z,7.60
2018-02-13T10:34:59.465Z,5.55
2018-02-13T10:37:34.126Z,2.80
2018-02-13T10:40:07.820Z,6.95
2018-02-13T10:42:41.571Z,3.10
2018-02-13T10:45:15.239Z,3.30
2018-02-13T10:47:49.033Z,2.40
2018-02-13T10:50:22.710Z,5.43
2018-02-13T10:52:56.333Z,3.90
2018-02-13T10:55:29.966Z,3.55
2018-02-13T10:58:03.701Z,3.17
2018-02-13T11:00:43.967Z,3.35
2018-02-13T11:03:17.632Z,3.92
2018-02-13T11:05:52.972Z,3.15
2018-02-13T11:08:26.669Z,3.10
2018-02-13T11:11:00.486Z,3.03
2018-02-13T11:13:34.200Z,3.10
2018-02-13T11:16:07.899Z,5.00
2018-02-13T11:18:41.582Z,2.60
2018-02-13T11:21:17.098Z,3.92
2018-02-13T11:23:50.820Z,2.17
2018-02-13T11:26:25.129Z,3.22
2018-02-13T11:28:58.808Z,2.70
2018-02-13T11:31:32.550Z,2.90
2018-02-13T11:34:06.268Z,3.67
2018-02-13T11:36:39.882Z,2.90
2018-02-13T11:39:15.048Z,3.35
2018-02-13T11:41:49.158Z,3.78
2018-02-13T11:44:22.913Z,9.45
2018-02-13T11:46:57.334Z,11.30
2018-02-13T11:49:31.170Z,5.28
2018-02-13T11:52:04.862Z,2.58
2018-02-13T11:54:38.451Z,3.35
2018-02-13T11:57:12.266Z,3.62
2018-02-13T11:59:45.882Z,3.20
2018-02-13T12:02:20.249Z,2.95
2018-02-13T12:04:53.891Z,3.20
2018-02-13T12:07:27.652Z,3.97
2018-02-13T12:10:02.077Z,4.18
2018-02-13T12:12:35.853Z,3.33
2018-02-13T12:15:10.327Z,3.53
2018-02-13T12:17:45.907Z,4.50
2018-02-13T12:20:19.541Z,4.10
2018-02-13T12:22:53.106Z,3.50
2018-02-13T12:25:43.601Z,2.87
2018-02-13T12:28:17.439Z,4.00
2018-02-13T12:30:51.215Z,3.30
2018-02-13T12:33:25.106Z,2.75
2018-02-13T12:35:59.711Z,4.00
2018-02-13T12:38:33.473Z,2.12
2018-02-13T12:41:07.200Z,3.00
2018-02-13T12:43:40.786Z,2.67
2018-02-13T12:46:14.436Z,5.57
2018-02-13T12:48:48.978Z,9.70
2018-02-13T12:51:22.776Z,9.75
2018-02-13T12:53:56.542Z,8.43
2018-02-13T12:56:31.066Z,5.22
2018-02-13T12:59:04.950Z,6.18
2018-02-13T13:01:39.480Z,3.35
2018-02-13T13:04:13.263Z,3.60
2018-02-13T13:06:51.205Z,3.85
2018-02-13T13:09:24.836Z,2.92
2018-02-13T13:11:59.193Z,2.53
2018-02-13T13:14:33.729Z,4.75
2018-02-13T13:17:07.430Z,3.42
2018-02-13T13:19:42.162Z,3.40
2018-02-13T13:22:15.758Z,3.50
2018-02-13T13:24:50.226Z,3.80
2018-02-13T13:27:24.123Z,2.72
2018-02-13T13:29:57.905Z,2.75
2018-02-13T13:32:31.698Z,9.40
2018-02-13T13:35:06.350Z,4.28
2018-02-13T13:37:40.146Z,4.55
2018-02-13T13:40:14.126Z,3.10
2018-02-13T13:42:47.805Z,3.65
2018-02-13T13:45:22.464Z,3.47
2018-02-13T13:47:56.184Z,3.90
2018-02-13T13:50:30.749Z,2.60
2018-02-13T13:53:05.396Z,4.07
2018-02-13T13:55:39.202Z,8.55
2018-02-13T13:58:13.624Z,10.20
2018-02-13T14:00:47.359Z,7.85
2018-02-13T14:03:21.163Z,4.93
2018-02-13T14:05:55.721Z,5.22
2018-02-13T14:08:30.059Z,4.00
2018-02-13T14:11:03.818Z,3.55
2018-02-13T14:13:37.673Z,3.10
2018-02-13T14:16:11.555Z,2.92
2018-02-13T14:18:45.267Z,2.42
2018-02-13T14:21:19.108Z,2.45
2018-02-13T14:23:53.726Z,4.22
2018-02-13T14:26:27.454Z,4.47
2018-02-13T14:29:02.457Z,3.37
2018-02-13T14:31:36.188Z,3.12
2018-02-13T14:34:09.908Z,2.85
2018-02-13T14:36:43.724Z,3.15
2018-02-13T14:39:18.224Z,3.05
2018-02-13T14:41:52.622Z,3.00
2018-02-13T14:44:26.291Z,3.30
2018-02-13T14:47:00.128Z,3.87
2018-02-13T14:49:33.994Z,3.50
2018-02-13T14:52:08.554Z,3.70
2018-02-13T14:54:42.269Z,3.12
2018-02-13T14:57:15.828Z,3.90
2018-02-13T14:59:49.655Z,7.47
2018-02-13T15:02:23.400Z,9.65
2018-02-13T15:04:57.928Z,17.45
2018-02-13T15:07:31.825Z,7.55
2018-02-13T15:10:06.282Z,6.50
2018-02-13T15:12:39.976Z,5.00
2018-02-13T15:15:13.710Z,4.25
2018-02-13T15:17:58.293Z,5.70
2018-02-13T15:20:32.812Z,5.82
2018-02-13T15:23:07.552Z,4.22
2018-02-13T15:25:41.176Z,3.78
2018-02-13T15:28:14.828Z,3.60
2018-02-13T15:30:48.711Z,3.50
2018-02-13T15:33:23.086Z,6.32
2018-02-13T15:35:57.459Z,4.35
2018-02-13T15:38:32.316Z,4.15
2018-02-13T15:41:07.069Z,4.93
2018-02-13T15:43:40.873Z,3.05
2018-02-13T15:46:15.412Z,3.83
2018-02-13T15:48:49.057Z,3.58
2018-02-13T15:51:23.512Z,4.35
2018-02-13T15:53:57.299Z,4.30
2018-02-13T15:56:31.909Z,4.80
2018-02-13T15:59:05.568Z,3.65
2018-02-13T16:01:39.693Z,4.75
2018-02-13T16:04:13.536Z,4.80
2018-02-13T16:06:47.393Z,4.50
2018-02-13T16:09:21.142Z,4.28
2018-02-13T16:11:55.134Z,10.35
2018-02-13T16:14:28.928Z,5.45
2018-02-13T16:17:03.460Z,4.20
2018-02-13T16:19:37.140Z,4.43
2018-02-13T16:22:10.913Z,8.75
2018-02-13T16:24:44.805Z,8.70
2018-02-13T16:27:19.439Z,5.05
2018-02-13T16:29:53.216Z,7.40
2018-02-13T16:32:26.793Z,11.10
2018-02-13T16:35:00.478Z,14.68
2018-02-13T16:37:34.301Z,13.32
2018-02-13T16:40:08.168Z,11.45
2018-02-13T16:42:42.760Z,9.65
2018-02-13T16:45:17.816Z,6.50
2018-02-13T16:47:51.574Z,8.40
2018-02-13T16:50:26.415Z,7.18
2018-02-13T16:53:00.117Z,6.90
2018-02-13T16:55:33.919Z,5.55
2018-02-13T16:58:08.442Z,7.07
2018-02-13T17:00:42.894Z,5.68
2018-02-13T17:03:17.020Z,6.32
2018-02-13T17:05:50.705Z,5.80
2018-02-13T17:08:24.462Z,7.70
2018-02-13T17:10:58.312Z,6.80
2018-02-13T17:13:32.151Z,6.53
2018-02-13T17:16:06.722Z,6.47
2018-02-13T17:18:40.429Z,5.28
2018-02-13T17:21:15.942Z,6.03
2018-02-13T17:23:49.584Z,6.45
2018-02-13T17:26:24.259Z,7.60
2018-02-13T17:28:58.068Z,6.78
2018-02-13T17:31:32.309Z,8.10
2018-02-13T17:34:06.084Z,7.35
2018-02-13T17:36:39.805Z,6.43
2018-02-13T17:39:13.484Z,7.90
2018-02-13T17:41:47.218Z,7.43
2018-02-13T17:44:21.632Z,7.35
2018-02-13T17:46:55.499Z,7.35
2018-02-13T17:49:30.294Z,6.90
2018-02-13T17:52:04.053Z,6.15
2018-02-13T17:54:37.909Z,7.03
2018-02-13T17:57:11.570Z,7.30
2018-02-13T17:59:45.275Z,11.27
2018-02-13T18:02:19.140Z,14.50
2018-02-13T18:04:52.905Z,11.88
2018-02-13T18:07:26.520Z,10.32
2018-02-13T18:10:01.036Z,7.68
2018-02-13T18:12:34.830Z,6.75
2018-02-13T18:15:09.469Z,7.70
2018-02-13T18:17:44.018Z,7.05
2018-02-13T18:20:18.534Z,9.00
2018-02-13T18:22:52.187Z,6.80
2018-02-13T18:25:26.665Z,7.93
2018-02-13T18:28:00.527Z,8.55
2018-02-13T18:30:34.200Z,7.47
2018-02-13T18:33:07.952Z,6.53
2018-02-13T18:35:41.656Z,6.65
2018-02-13T18:38:15.256Z,8.73
2018-02-13T18:40:49.003Z,20.65
2018-02-13T18:43:22.813Z,9.25
2018-02-13T18:45:56.674Z,6.05
2018-02-13T18:48:30.295Z,9.40
2018-02-13T18:51:04.177Z,6.95
2018-02-13T18:53:37.987Z,7.57
2018-02-13T18:56:11.776Z,13.38
2018-02-13T18:58:45.417Z,8.73
2018-02-13T19:01:19.207Z,9.30
2018-02-13T19:03:53.682Z,12.68
2018-02-13T19:06:27.468Z,9.27
2018-02-13T19:09:03.290Z,12.05
2018-02-13T19:11:37.117Z,7.65
2018-02-13T19:14:10.937Z,8.27
2018-02-13T19:19:18.366Z,8.30
2018-02-13T19:21:52.983Z,9.10
2018-02-13T19:24:26.730Z,11.10
2018-02-13T19:27:00.499Z,54.78
2018-02-13T19:29:35.107Z,11.48
2018-02-13T19:32:09.432Z,11.70
2018-02-13T19:34:43.916Z,11.60
2018-02-13T19:37:18.505Z,12.50
2018-02-13T19:39:52.289Z,11.50
2018-02-13T19:42:25.971Z,11.00
2018-02-13T19:45:00.546Z,9.90
2018-02-13T19:47:34.311Z,9.50
2018-02-13T19:50:08.878Z,7.50
2018-02-13T19:52:42.608Z,6.70
2018-02-13T19:55:16.353Z,10.75
2018-02-13T19:57:49.996Z,10.30
2018-02-13T20:00:23.823Z,9.82
2018-02-13T20:02:58.370Z,13.07
2018-02-13T20:05:32.785Z,11.95
2018-02-13T20:08:07.291Z,8.13
2018-02-13T20:10:41.933Z,8.88
2018-02-13T20:13:16.556Z,13.65
2018-02-13T20:15:50.228Z,10.30
2018-02-13T20:18:23.856Z,11.50
2018-02-13T20:20:57.482Z,10.90
2018-02-13T20:23:31.160Z,12.15
2018-02-13T20:26:04.998Z,11.45
2018-02-13T20:28:38.742Z,13.27
2018-02-13T20:31:13.368Z,12.37
2018-02-13T20:33:47.216Z,10.70
2018-02-13T20:36:21.919Z,10.57
2018-02-13T20:38:55.790Z,8.95
2018-02-13T20:41:31.517Z,10.57
2018-02-13T20:44:06.317Z,13.93
2018-02-13T20:46:40.177Z,18.20
2018-02-13T20:49:14.003Z,20.17
2018-02-13T20:51:47.869Z,14.75
2018-02-13T20:54:22.565Z,13.07
2018-02-13T20:56:56.285Z,11.02
2018-02-13T20:59:30.745Z,13.38
2018-02-13T21:02:05.339Z,14.98
2018-02-13T21:04:39.210Z,10.32
2018-02-13T21:07:12.921Z,10.57
2018-02-13T21:09:47.652Z,9.90
2018-02-13T21:12:21.334Z,9.52
2018-02-13T21:14:55.379Z,9.48
2018-02-13T21:17:29.122Z,9.82
2018-02-13T21:20:02.971Z,9.38
2018-02-13T21:22:36.712Z,9.30
2018-02-13T21:25:10.450Z,12.10
2018-02-13T21:27:44.112Z,11.70
2018-02-13T21:30:17.875Z,10.80
2018-02-13T21:32:51.600Z,12.73
2018-02-13T21:35:25.335Z,9.93
2018-02-13T21:37:59.072Z,10.82
2018-02-13T21:40:32.867Z,10.25
2018-02-13T21:43:09.648Z,14.02
2018-02-13T21:45:43.452Z,10.75
2018-02-13T21:48:17.247Z,10.32
2018-02-13T21:50:53.103Z,9.23
2018-02-13T21:53:26.760Z,8.35
2018-02-13T21:56:00.410Z,9.90
2018-02-13T21:58:53.300Z,8.90
2018-02-13T22:01:32.391Z,13.45
2018-02-13T22:04:09.376Z,31.87
2018-02-13T22:06:45.605Z,24.10
2018-02-13T22:09:19.478Z,16.42
2018-02-13T22:11:55.263Z,16.65
2018-02-13T22:14:33.206Z,17.48
2018-02-13T22:17:07.814Z,14.95
2018-02-13T22:19:42.322Z,11.27
2018-02-13T22:22:16.237Z,8.43
2018-02-13T22:27:45.004Z,13.73
2018-02-13T22:30:25.747Z,11.45
2018-02-13T22:33:04.026Z,15.52
2018-02-13T22:35:39.848Z,25.45
2018-02-13T22:38:17.686Z,15.68
2018-02-13T22:40:58.739Z,17.60
2018-02-13T22:43:40.369Z,19.27
2018-02-13T22:46:16.048Z,35.63
2018-02-13T22:48:52.577Z,11.00
2018-02-13T22:51:29.010Z,15.77
2018-02-13T22:54:09.844Z,16.30
2018-02-13T22:56:43.525Z,16.75
2018-02-13T22:59:20.645Z,19.48
2018-02-13T23:01:58.683Z,34.55
2018-02-13T23:04:38.157Z,11.48
2018-02-13T23:07:16.156Z,18.83
2018-02-13T23:09:59.765Z,19.12
2018-02-13T23:12:40.681Z,17.02
2018-02-13T23:15:19.018Z,14.63
2018-02-13T23:17:59.428Z,14.48
2018-02-13T23:20:37.944Z,11.10
2018-02-13T23:23:22.787Z,14.32
2018-02-13T23:26:02.783Z,16.87
2018-02-13T23:28:41.585Z,16.20
2018-02-13T23:31:29.119Z,13.20
2018-02-13T23:34:05.509Z,9.82
2018-02-13T23:36:44.862Z,18.52
2018-02-13T23:39:25.546Z,8.50
2018-02-13T23:42:03.508Z,9.82
2018-02-13T23:44:40.560Z,9.95
2018-02-13T23:47:15.890Z,12.80
2018-02-13T23:49:49.587Z,8.23
2018-02-13T23:52:24.261Z,8.35
2018-02-13T23:54:59.021Z,8.25
2018-02-13T23:57:33.738Z,8.77
